createdAt,value
2018-07-20T00:02:06.334Z,100172.63
2018-07-20T00:04:35.360Z,100172.14
2018-07-20T00:07:04.280Z,100171.18
2018-07-20T00:09:33.187Z,100171.89
2018-07-20T00:12:02.115Z,100170.31
2018-07-20T00:14:31.044Z,100168.25
2018-07-20T00:16:59.970Z,100173.02
2018-07-20T00:19:28.904Z,100167.77
2018-07-20T00:21:57.832Z,100168.38
2018-07-20T00:24:26.773Z,100169.20
2018-07-20T00:26:55.687Z,100170.69
2018-07-20T00:29:24.612Z,100169.41
2018-07-20T00:31:53.559Z,100164.64
2018-07-20T00:34:22.485Z,100163.59
2018-07-20T00:36:51.416Z,100163.75
2018-07-20T00:39:20.371Z,100162.17
2018-07-20T00:41:49.292Z,100166.05
2018-07-20T00:44:18.263Z,100160.49
2018-07-20T00:46:47.216Z,100170.11
2018-07-20T00:49:16.161Z,100170.83
2018-07-20T00:51:45.117Z,100165.72
2018-07-20T00:54:14.079Z,100164.83
2018-07-20T00:56:43.011Z,100163.55
2018-07-20T00:59:12.001Z,100163.41
2018-07-20T01:01:40.928Z,100173.84
2018-07-20T01:04:09.863Z,100169.91
2018-07-20T01:06:38.787Z,100162.43
2018-07-20T01:09:08.991Z,100162.43
2018-07-20T01:11:37.996Z,100166.74
2018-07-20T01:14:07.169Z,100158.86
2018-07-20T01:16:36.487Z,100160.22
2018-07-20T01:19:05.457Z,100153.34
2018-07-20T01:21:34.508Z,100155.59
2018-07-20T01:24:03.486Z,100149.70
2018-07-20T01:26:32.474Z,100149.93
2018-07-20T01:29:01.403Z,100155.59
2018-07-20T01:31:30.348Z,100154.55
2018-07-20T01:33:59.267Z,100147.08
2018-07-20T01:36:28.203Z,100147.12
2018-07-20T01:38:57.154Z,100145.84
2018-07-20T01:41:26.123Z,100153.16
2018-07-20T01:43:55.029Z,100143.62
2018-07-20T01:46:23.975Z,100146.93
2018-07-20T01:48:52.920Z,100143.70
2018-07-20T01:51:21.833Z,100147.53
2018-07-20T01:53:50.796Z,100158.11
2018-07-20T01:56:19.743Z,100150.23
2018-07-20T01:58:48.744Z,100149.33
2018-07-20T02:01:17.800Z,100150.52
2018-07-20T02:03:46.748Z,100149.29
2018-07-20T02:06:15.691Z,100153.67
2018-07-20T02:08:44.632Z,100154.53
2018-07-20T02:11:13.600Z,100158.17
2018-07-20T02:13:42.522Z,100156.09
2018-07-20T02:16:11.498Z,100155.67
2018-07-20T02:18:40.413Z,100151.92
2018-07-20T02:21:09.494Z,100153.64
2018-07-20T02:23:38.456Z,100149.92
2018-07-20T02:26:07.402Z,100150.66
2018-07-20T02:28:36.299Z,100150.73
2018-07-20T02:31:05.269Z,100142.70
2018-07-20T02:33:34.220Z,100143.19
2018-07-20T02:36:03.820Z,100145.40
2018-07-20T02:38:32.771Z,100137.73
2018-07-20T02:41:01.823Z,100137.08
2018-07-20T02:43:30.767Z,100139.52
2018-07-20T02:45:59.886Z,100143.33
2018-07-20T02:48:28.835Z,100139.84
2018-07-20T02:50:57.853Z,100136.95
2018-07-20T02:53:26.793Z,100137.08
2018-07-20T02:55:55.728Z,100132.44
2018-07-20T02:58:24.663Z,100131.45
2018-07-20T03:00:53.657Z,100130.33
2018-07-20T03:03:22.599Z,100133.59
2018-07-20T03:05:51.551Z,100134.15
2018-07-20T03:08:20.469Z,100136.55
2018-07-20T03:10:49.391Z,100130.16
2018-07-20T03:13:18.409Z,100129.11
2018-07-20T03:15:47.350Z,100134.02
2018-07-20T03:18:16.278Z,100129.38
2018-07-20T03:20:45.206Z,100138.13
2018-07-20T03:23:14.144Z,100130.82
2018-07-20T03:25:43.049Z,100129.80
2018-07-20T03:28:11.961Z,100123.12
2018-07-20T03:30:40.881Z,100121.34
2018-07-20T03:33:09.873Z,100118.08
2018-07-20T03:35:38.808Z,100122.13
2018-07-20T03:38:07.767Z,100118.87
2018-07-20T03:40:36.764Z,100121.51
2018-07-20T03:43:05.723Z,100129.53
2018-07-20T03:45:34.657Z,100129.73
2018-07-20T03:48:03.661Z,100127.53
2018-07-20T03:50:32.616Z,100123.78
2018-07-20T03:53:01.557Z,100122.80
2018-07-20T03:55:31.492Z,100122.30
2018-07-20T03:58:00.503Z,100120.72
2018-07-20T04:00:29.437Z,100122.56
2018-07-20T04:02:58.476Z,100117.03
2018-07-20T04:05:27.415Z,100119.67
2018-07-20T04:07:56.468Z,100118.55
2018-07-20T04:10:25.420Z,100115.98
2018-07-20T04:12:54.353Z,100114.80
2018-07-20T04:15:23.282Z,100107.81
2018-07-20T04:17:52.205Z,100105.23
2018-07-20T04:20:21.134Z,100105.10
2018-07-20T04:22:50.023Z,100105.83
2018-07-20T04:25:18.965Z,100110.01
2018-07-20T04:27:47.891Z,100113.27
2018-07-20T04:30:16.810Z,100115.17
2018-07-20T04:32:45.814Z,100110.73
2018-07-20T04:35:14.712Z,100112.48
2018-07-20T04:37:43.849Z,100116.62
2018-07-20T04:40:12.781Z,100113.06
2018-07-20T04:42:41.698Z,100119.95
2018-07-20T04:45:10.772Z,100117.02
2018-07-20T04:47:39.689Z,100118.16
2018-07-20T04:50:08.649Z,100113.83
2018-07-20T04:52:37.572Z,100120.46
2018-07-20T04:55:06.509Z,100122.23
2018-07-20T04:57:35.463Z,100117.24
2018-07-20T05:00:04.776Z,100120.89
2018-07-20T05:02:33.721Z,100113.04
2018-07-20T05:05:02.720Z,100119.23
2018-07-20T05:07:31.652Z,100117.95
2018-07-20T05:10:00.623Z,100112.62
2018-07-20T05:12:29.609Z,100108.74
2018-07-20T05:14:58.515Z,100099.05
2018-07-20T05:17:27.457Z,100110.27
2018-07-20T05:19:56.390Z,100103.28
2018-07-20T05:22:25.315Z,100106.97
2018-07-20T05:24:54.257Z,100110.78
2018-07-20T05:27:23.319Z,100107.27
2018-07-20T05:29:52.265Z,100108.41
2018-07-20T05:32:21.320Z,100105.06
2018-07-20T05:34:50.250Z,100102.97
2018-07-20T05:37:19.209Z,100099.53
2018-07-20T05:39:48.143Z,100101.52
2018-07-20T05:42:17.123Z,100107.04
2018-07-20T05:44:46.043Z,100110.52
2018-07-20T05:47:14.967Z,100101.81
2018-07-20T05:49:44.000Z,100113.25
2018-07-20T05:52:12.968Z,100104.14
2018-07-20T05:54:41.905Z,100107.30
2018-07-20T05:57:10.953Z,100112.23
2018-07-20T05:59:39.887Z,100109.27
2018-07-20T06:02:08.817Z,100107.89
2018-07-20T06:04:37.789Z,100104.94
2018-07-20T06:07:06.775Z,100101.48
2018-07-20T06:09:35.742Z,100106.25
2018-07-20T06:12:04.689Z,100101.26
2018-07-20T06:14:33.623Z,100093.53
2018-07-20T06:17:02.680Z,100086.64
2018-07-20T06:19:31.597Z,100088.41
2018-07-20T06:22:00.523Z,100090.30
2018-07-20T06:24:29.495Z,100082.50
2018-07-20T06:26:58.440Z,100082.58
2018-07-20T06:29:27.374Z,100088.55
2018-07-20T06:31:56.375Z,100090.47
2018-07-20T06:34:25.360Z,100088.53
2018-07-20T06:36:54.306Z,100091.27
2018-07-20T06:39:23.272Z,100088.26
2018-07-20T06:41:52.211Z,100083.37
2018-07-20T06:44:21.128Z,100080.96
2018-07-20T06:46:50.212Z,100083.01
2018-07-20T06:49:19.128Z,100080.49
2018-07-20T06:51:48.299Z,100079.87
2018-07-20T06:54:17.238Z,100074.93
2018-07-20T06:56:46.157Z,100087.11
2018-07-20T06:59:15.092Z,100080.04
2018-07-20T07:01:44.054Z,100080.34
2018-07-20T07:04:12.976Z,100078.80
2018-07-20T07:06:41.925Z,100079.56
2018-07-20T07:09:10.993Z,100079.80
2018-07-20T07:11:40.313Z,100081.27
2018-07-20T07:14:09.598Z,100082.98
2018-07-20T07:16:38.689Z,100087.11
2018-07-20T07:19:07.377Z,100089.34
2018-07-20T07:21:36.313Z,100092.80
2018-07-20T07:24:05.260Z,100090.48
2018-07-20T07:26:34.275Z,100083.34
2018-07-20T07:29:03.226Z,100091.52
2018-07-20T07:31:32.172Z,100091.98
2018-07-20T07:34:01.147Z,100090.41
2018-07-20T07:36:30.076Z,100085.44
2018-07-20T07:38:59.045Z,100084.50
2018-07-20T07:41:28.232Z,100081.70
2018-07-20T07:43:57.390Z,100078.04
2018-07-20T07:46:26.327Z,100082.35
2018-07-20T07:48:55.271Z,100085.53
2018-07-20T07:51:24.229Z,100084.43
2018-07-20T07:53:53.160Z,100075.08
2018-07-20T07:56:22.092Z,100079.20
2018-07-20T07:58:50.990Z,100071.13
2018-07-20T08:01:19.923Z,100069.84
2018-07-20T08:03:48.881Z,100072.89
2018-07-20T08:06:17.852Z,100070.55
2018-07-20T08:08:46.820Z,100068.73
2018-07-20T08:11:15.723Z,100063.63
2018-07-20T08:13:44.692Z,100065.53
2018-07-20T08:16:13.680Z,100067.66
2018-07-20T08:18:42.663Z,100067.83
2018-07-20T08:21:11.708Z,100068.84
2018-07-20T08:23:40.761Z,100063.86
2018-07-20T08:26:09.727Z,100057.16
2018-07-20T08:28:39.340Z,100061.93
2018-07-20T08:31:08.976Z,100058.20
2018-07-20T08:33:37.940Z,100054.42
2018-07-20T08:36:06.886Z,100058.70
2018-07-20T08:38:35.827Z,100058.47
2018-07-20T08:41:04.777Z,100066.41
2018-07-20T08:43:33.732Z,100058.78
2018-07-20T08:46:02.664Z,100061.63
2018-07-20T08:48:31.575Z,100053.64
2018-07-20T08:51:00.684Z,100051.95
2018-07-20T08:53:29.630Z,100044.55
2018-07-20T08:55:58.594Z,100055.43
2018-07-20T08:58:27.538Z,100052.98
2018-07-20T09:00:56.579Z,100057.20
2018-07-20T09:03:25.717Z,100046.54
2018-07-20T09:05:54.711Z,100042.78
2018-07-20T09:08:23.665Z,100049.31
2018-07-20T09:10:52.707Z,100036.92
2018-07-20T09:13:21.704Z,100033.89
2018-07-20T09:15:50.685Z,100036.22
2018-07-20T09:18:19.607Z,100036.61
2018-07-20T09:20:48.610Z,100030.50
2018-07-20T09:23:17.514Z,100029.69
2018-07-20T09:25:46.498Z,100027.30
2018-07-20T09:28:15.478Z,100029.42
2018-07-20T09:30:44.412Z,100027.88
2018-07-20T09:33:13.376Z,100028.55
2018-07-20T09:35:42.348Z,100021.52
2018-07-20T09:38:11.349Z,100015.00
2018-07-20T09:40:40.293Z,100017.20
2018-07-20T09:43:09.227Z,100022.05
2018-07-20T09:45:38.185Z,100012.87
2018-07-20T09:48:07.120Z,100015.38
2018-07-20T09:50:36.049Z,100009.63
2018-07-20T09:53:05.010Z,100008.03
2018-07-20T09:55:33.936Z,99999.04
2018-07-20T09:58:03.307Z,100001.36
2018-07-20T10:00:42.320Z,99999.16
2018-07-20T10:03:11.276Z,100000.69
2018-07-20T10:05:40.220Z,100002.89
2018-07-20T10:08:09.340Z,100004.01
2018-07-20T10:10:38.286Z,99997.67
2018-07-20T10:13:07.252Z,99991.48
2018-07-20T10:15:36.427Z,99992.70
2018-07-20T10:18:05.339Z,99990.11
2018-07-20T10:20:34.259Z,99986.97
2018-07-20T10:23:03.279Z,99990.53
2018-07-20T10:25:32.722Z,99989.02
2018-07-20T10:28:01.659Z,99989.73
2018-07-20T10:30:30.864Z,99981.80
2018-07-20T10:32:59.906Z,99978.08
2018-07-20T10:35:28.838Z,99978.14
2018-07-20T10:37:57.852Z,99972.44
2018-07-20T10:40:27.772Z,99972.20
2018-07-20T10:42:58.813Z,99968.88
2018-07-20T10:45:27.908Z,99960.63
2018-07-20T10:47:56.888Z,99964.95
2018-07-20T10:50:25.879Z,99954.02
2018-07-20T10:52:54.852Z,99946.95
2018-07-20T10:55:23.775Z,99950.45
2018-07-20T10:57:52.817Z,99954.02
2018-07-20T11:00:21.715Z,99948.19
2018-07-20T11:02:50.625Z,99957.77
2018-07-20T11:05:19.589Z,99951.54
2018-07-20T11:07:48.504Z,99948.03
2018-07-20T11:10:17.434Z,99954.97
2018-07-20T11:12:46.367Z,99958.03
2018-07-20T11:15:15.266Z,99957.77
2018-07-20T11:17:44.228Z,99955.80
2018-07-20T11:20:13.144Z,99954.55
2018-07-20T11:22:42.908Z,99956.47
2018-07-20T11:25:11.905Z,99946.04
2018-07-20T11:27:40.859Z,99939.73
2018-07-20T11:30:09.845Z,99935.23
2018-07-20T11:32:38.790Z,99943.08
2018-07-20T11:35:07.725Z,99944.00
2018-07-20T11:37:36.624Z,99940.50
2018-07-20T11:40:05.543Z,99930.91
2018-07-20T11:42:34.428Z,99922.92
2018-07-20T11:45:03.347Z,99915.03
2018-07-20T11:47:32.360Z,99916.87
2018-07-20T11:50:01.256Z,99918.68
2018-07-20T11:52:30.396Z,99915.52
2018-07-20T11:54:59.357Z,99910.51
2018-07-20T11:57:28.281Z,99905.17
2018-07-20T11:59:57.239Z,99893.69
2018-07-20T12:02:26.168Z,99899.22
2018-07-20T12:04:55.106Z,99893.36
2018-07-20T12:07:24.049Z,99900.16
2018-07-20T12:09:53.015Z,99899.94
2018-07-20T12:12:22.005Z,99898.42
2018-07-20T12:14:51.083Z,99891.39
2018-07-20T12:17:20.029Z,99895.98
2018-07-20T12:19:48.967Z,99882.78
2018-07-20T12:22:17.882Z,99885.57
2018-07-20T12:24:46.831Z,99885.17
2018-07-20T12:27:15.747Z,99876.31
2018-07-20T12:29:45.260Z,99883.28
2018-07-20T12:32:14.157Z,99875.19
2018-07-20T12:34:43.120Z,99879.66
2018-07-20T12:37:12.044Z,99881.05
2018-07-20T12:39:41.010Z,99889.21
2018-07-20T12:42:10.001Z,99874.24
2018-07-20T12:46:39.850Z,99880.34
2018-07-20T12:49:08.960Z,99873.89
2018-07-20T12:51:37.891Z,99866.26
2018-07-20T12:54:06.849Z,99872.20
2018-07-20T12:56:35.823Z,99869.70
2018-07-20T12:59:05.024Z,99865.52
2018-07-20T13:01:33.933Z,99861.47
2018-07-20T13:04:03.370Z,99864.59
2018-07-20T13:06:32.395Z,99859.98
2018-07-20T13:09:02.256Z,99850.40
2018-07-20T13:11:31.324Z,99857.72
2018-07-20T13:14:00.274Z,99845.79
2018-07-20T13:16:29.174Z,99846.03
2018-07-20T13:18:58.109Z,99834.53
2018-07-20T13:21:27.032Z,99836.48
2018-07-20T13:23:55.985Z,99835.62
2018-07-20T13:26:24.969Z,99831.97
2018-07-20T13:28:53.932Z,99825.55
2018-07-20T13:31:22.938Z,99821.47
2018-07-20T13:33:51.826Z,99820.31
2018-07-20T13:36:20.784Z,99820.46
2018-07-20T13:38:49.964Z,99816.20
2018-07-20T13:41:18.884Z,99820.75
2018-07-20T13:43:47.793Z,99815.34
2018-07-20T13:46:16.704Z,99807.97
2018-07-20T13:48:45.812Z,99805.83
2018-07-20T13:51:14.718Z,99801.32
2018-07-20T13:53:43.672Z,99794.33
2018-07-20T13:56:12.582Z,99789.41
2018-07-20T13:58:41.499Z,99786.22
2018-07-20T14:01:10.514Z,99782.78
2018-07-20T14:03:39.680Z,99779.05
2018-07-20T14:06:08.634Z,99778.51
2018-07-20T14:08:37.598Z,99774.75
2018-07-20T14:11:06.691Z,99778.91
2018-07-20T14:13:35.868Z,99761.52
2018-07-20T14:16:04.973Z,99765.78
2018-07-20T14:18:33.932Z,99761.38
2018-07-20T14:21:02.860Z,99763.61
2018-07-20T14:23:31.767Z,99759.41
2018-07-20T14:26:00.681Z,99756.07
2018-07-20T14:28:29.663Z,99755.95
2018-07-20T14:30:58.670Z,99756.97
2018-07-20T14:33:27.783Z,99743.41
2018-07-20T14:35:56.693Z,99752.81
2018-07-20T14:38:25.639Z,99747.21
2018-07-20T14:40:54.613Z,99753.64
2018-07-20T14:43:23.664Z,99737.84
2018-07-20T14:45:52.681Z,99744.23
2018-07-20T14:48:21.596Z,99740.36
2018-07-20T14:50:50.527Z,99731.97
2018-07-20T14:53:19.673Z,99731.06
2018-07-20T14:55:48.652Z,99727.40
2018-07-20T14:58:17.560Z,99723.50
2018-07-20T15:00:46.489Z,99734.45
2018-07-20T15:03:15.420Z,99737.30
2018-07-20T15:05:44.338Z,99733.29
2018-07-20T15:08:13.333Z,99729.58
2018-07-20T15:10:42.371Z,99729.14
2018-07-20T15:13:11.272Z,99719.36
2018-07-20T15:15:40.241Z,99717.53
2018-07-20T15:18:09.197Z,99716.89
2018-07-20T15:20:38.117Z,99719.47
2018-07-20T15:23:07.184Z,99717.21
2018-07-20T15:25:36.310Z,99715.34
2018-07-20T15:28:05.383Z,99706.06
2018-07-20T15:30:34.279Z,99704.83
2018-07-20T15:33:03.257Z,99700.29
2018-07-20T15:35:32.157Z,99705.33
2018-07-20T15:38:01.113Z,99698.09
2018-07-20T15:40:30.037Z,99701.45
2018-07-20T15:42:58.945Z,99689.81
2018-07-20T15:45:27.892Z,99686.39
2018-07-20T15:47:56.844Z,99689.53
2018-07-20T15:50:25.784Z,99692.95
2018-07-20T15:53:36.268Z,99695.55
2018-07-20T15:55:23.795Z,99689.97
2018-07-20T15:57:52.779Z,99681.83
2018-07-20T16:00:21.705Z,99687.64
2018-07-20T16:02:50.628Z,99685.61
2018-07-20T16:05:19.568Z,99686.20
2018-07-20T16:07:48.492Z,99685.66
2018-07-20T16:10:17.407Z,99677.95
2018-07-20T16:12:46.326Z,99683.70
2018-07-20T16:15:15.266Z,99677.75
2018-07-20T16:17:44.194Z,99676.08
2018-07-20T16:20:13.117Z,99681.31
2018-07-20T16:22:42.275Z,99670.86
2018-07-20T16:25:11.187Z,99676.05
2018-07-20T16:27:40.115Z,99676.20
2018-07-20T16:30:09.147Z,99668.83
2018-07-20T16:32:38.072Z,99670.73
2018-07-20T16:35:07.295Z,99674.40
2018-07-20T16:37:36.238Z,99672.08
2018-07-20T16:40:05.128Z,99667.51
2018-07-20T16:42:34.077Z,99673.02
2018-07-20T16:45:03.024Z,99664.57
2018-07-20T16:47:31.932Z,99661.20
2018-07-20T16:50:01.959Z,99665.19
2018-07-20T16:52:30.881Z,99667.53
2018-07-20T16:54:59.812Z,99660.98
2018-07-20T16:57:28.744Z,99663.13
2018-07-20T16:59:57.651Z,99668.48
2018-07-20T17:02:26.595Z,99663.61
2018-07-20T17:04:55.585Z,99660.63
2018-07-20T17:07:24.507Z,99664.05
2018-07-20T17:09:53.467Z,99671.12
2018-07-20T17:12:22.440Z,99665.52
2018-07-20T17:14:51.383Z,99673.62
2018-07-20T17:17:20.341Z,99669.72
2018-07-20T17:19:49.579Z,99674.73
2018-07-20T17:22:18.528Z,99672.47
2018-07-20T17:24:47.522Z,99673.40
2018-07-20T17:27:16.755Z,99673.89
2018-07-20T17:29:46.018Z,99673.66
2018-07-20T17:32:14.932Z,99670.94
2018-07-20T17:34:43.886Z,99671.84
2018-07-20T17:37:12.912Z,99675.44
2018-07-20T17:39:41.845Z,99671.70
2018-07-20T17:42:11.036Z,99666.49
2018-07-20T17:44:40.005Z,99673.63
2018-07-20T17:47:09.302Z,99666.66
2018-07-20T17:49:38.236Z,99670.60
2018-07-20T17:52:07.157Z,99670.73
2018-07-20T17:54:36.090Z,99666.82
2018-07-20T17:57:05.078Z,99667.23
2018-07-20T17:59:34.051Z,99671.03
2018-07-20T18:02:03.004Z,99674.23
2018-07-20T18:04:31.916Z,99675.27
2018-07-20T18:07:00.908Z,99671.59
2018-07-20T18:09:29.822Z,99671.05
2018-07-20T18:11:58.798Z,99674.83
2018-07-20T18:14:27.719Z,99677.41
2018-07-20T18:16:56.648Z,99676.45
2018-07-20T18:19:25.556Z,99682.38
2018-07-20T18:21:54.499Z,99675.37
2018-07-20T18:24:23.657Z,99681.28
2018-07-20T18:26:53.602Z,99687.20
2018-07-20T18:29:22.488Z,99685.88
2018-07-20T18:31:51.443Z,99686.28
2018-07-20T18:34:20.352Z,99689.07
2018-07-20T18:36:49.255Z,99692.81
2018-07-20T18:39:18.169Z,99692.62
2018-07-20T18:41:47.135Z,99698.88
2018-07-20T18:44:16.033Z,99699.28
2018-07-20T18:46:44.959Z,99692.01
2018-07-20T18:49:13.891Z,99696.71
2018-07-20T18:51:43.493Z,99695.14
2018-07-20T18:54:12.416Z,99696.86
2018-07-20T18:56:41.403Z,99693.90
2018-07-20T18:59:11.174Z,99698.35
2018-07-20T19:01:40.096Z,99697.92
2018-07-20T19:04:09.063Z,99704.94
2018-07-20T19:06:38.017Z,99703.52
2018-07-20T19:09:08.967Z,99704.44
2018-07-20T19:11:38.160Z,99715.70
2018-07-20T19:14:07.120Z,99713.08
2018-07-20T19:16:36.129Z,99715.77
2018-07-20T19:19:05.112Z,99712.57
2018-07-20T19:21:34.060Z,99716.95
2018-07-20T19:24:03.178Z,99720.26
2018-07-20T19:26:32.111Z,99719.16
2018-07-20T19:29:01.075Z,99716.14
2018-07-20T19:31:30.028Z,99721.33
2018-07-20T19:33:58.941Z,99714.59
2018-07-20T19:36:27.825Z,99714.92
2018-07-20T19:38:56.763Z,99721.28
2018-07-20T19:41:25.676Z,99716.88
2018-07-20T19:43:54.823Z,99715.86
2018-07-20T19:46:23.746Z,99714.41
2018-07-20T19:48:52.671Z,99718.25
2018-07-20T19:51:21.618Z,99721.42
2018-07-20T19:53:50.585Z,99718.13
2018-07-20T19:56:19.555Z,99721.59
2018-07-20T19:58:48.581Z,99718.86
2018-07-20T20:01:17.468Z,99726.28
2018-07-20T20:03:46.426Z,99723.09
2018-07-20T20:06:15.425Z,99723.09
2018-07-20T20:08:44.657Z,99722.88
2018-07-20T20:11:13.687Z,99723.27
2018-07-20T20:13:42.761Z,99728.25
2018-07-20T20:16:11.724Z,99732.09
2018-07-20T20:18:40.702Z,99726.80
2018-07-20T20:21:09.754Z,99726.96
2018-07-20T20:23:38.682Z,99730.86
2018-07-20T20:26:07.743Z,99724.98
2018-07-20T20:28:36.792Z,99727.88
2018-07-20T20:31:05.797Z,99724.89
2018-07-20T20:33:34.772Z,99729.77
2018-07-20T20:36:04.654Z,99736.53
2018-07-20T20:38:34.934Z,99737.90
2018-07-20T20:41:03.862Z,99744.47
2018-07-20T20:43:32.909Z,99745.64
2018-07-20T20:46:02.004Z,99760.77
2018-07-20T20:48:31.093Z,99755.41
2018-07-20T20:51:00.181Z,99754.53
2018-07-20T20:53:29.088Z,99757.41
2018-07-20T20:55:58.105Z,99754.27
2018-07-20T20:58:27.040Z,99756.14
2018-07-20T21:00:55.945Z,99750.30
2018-07-20T21:03:24.842Z,99746.82
2018-07-20T21:05:53.743Z,99753.64
2018-07-20T21:08:22.888Z,99755.73
2018-07-20T21:10:51.864Z,99755.23
2018-07-20T21:13:20.812Z,99752.73
2018-07-20T21:15:49.743Z,99748.03
2018-07-20T21:18:18.864Z,99753.48
2018-07-20T21:20:47.935Z,99757.44
2018-07-20T21:23:16.972Z,99754.86
2018-07-20T21:25:45.902Z,99750.54
2018-07-20T21:28:14.838Z,99741.09
2018-07-20T21:30:43.799Z,99741.30
2018-07-20T21:33:12.805Z,99744.18
2018-07-20T21:35:41.739Z,99750.21
2018-07-20T21:38:10.684Z,99748.18
2018-07-20T21:40:39.721Z,99745.40
2018-07-20T21:43:08.920Z,99748.27
2018-07-20T21:45:37.864Z,99743.31
2018-07-20T21:48:07.067Z,99745.39
2018-07-20T21:50:36.003Z,99748.31
2018-07-20T21:53:04.912Z,99746.53
2018-07-20T21:55:34.125Z,99746.53
2018-07-20T21:58:02.997Z,99742.59
2018-07-20T22:00:31.932Z,99741.20
2018-07-20T22:03:00.836Z,99747.48
2018-07-20T22:05:29.836Z,99745.16
2018-07-20T22:07:58.818Z,99745.78
2018-07-20T22:10:27.804Z,99746.19
2018-07-20T22:12:56.735Z,99747.79
2018-07-20T22:15:25.661Z,99743.17
2018-07-20T22:17:54.782Z,99752.53
2018-07-20T22:20:23.975Z,99754.81
2018-07-20T22:22:52.961Z,99760.77
2018-07-20T22:25:21.892Z,99763.17
2018-07-20T22:27:50.828Z,99761.85
2018-07-20T22:30:19.757Z,99764.27
2018-07-20T22:32:48.713Z,99759.40
2018-07-20T22:35:17.660Z,99765.69
2018-07-20T22:37:46.569Z,99762.86
2018-07-20T22:40:15.632Z,99756.91
2018-07-20T22:42:44.581Z,99758.27
2018-07-20T22:45:13.505Z,99758.87
2018-07-20T22:47:42.451Z,99755.36
2018-07-20T22:50:11.795Z,99751.98
2018-07-20T22:52:40.971Z,99745.09
2018-07-20T22:55:09.900Z,99750.58
2018-07-20T22:57:38.872Z,99742.78
2018-07-20T23:00:07.786Z,99737.34
2018-07-20T23:02:36.752Z,99743.23
2018-07-20T23:05:06.019Z,99738.16
2018-07-20T23:07:34.942Z,99739.73
2018-07-20T23:10:03.880Z,99739.86
2018-07-20T23:12:32.965Z,99744.14
2018-07-20T23:15:02.111Z,99749.32
2018-07-20T23:17:31.025Z,99745.81
2018-07-20T23:20:00.001Z,99750.58
2018-07-20T23:22:28.972Z,99751.39
2018-07-20T23:24:57.868Z,99753.11
2018-07-20T23:27:26.800Z,99757.66
2018-07-20T23:29:55.756Z,99761.99
2018-07-20T23:32:24.700Z,99761.09
2018-07-20T23:34:53.617Z,99760.01
2018-07-20T23:37:22.519Z,99755.27
2018-07-20T23:39:51.540Z,99750.88
2018-07-20T23:42:20.616Z,99751.14
2018-07-20T23:44:49.596Z,99753.32
2018-07-20T23:47:18.785Z,99751.27
2018-07-20T23:49:47.943Z,99751.06
2018-07-20T23:52:17.235Z,99751.52
2018-07-20T23:54:46.170Z,99751.97
2018-07-20T23:57:15.128Z,99754.48
2018-07-20T23:59:44.053Z,99748.59
